Terminal Aerodrome Forecast
Issued by NWS

Home | Current Version | Previous Version | Text Only | Print | Product List | Glossary On
Versions: 1 2 3 4 5 6 7 8 9 10 11 12 13 14 15 16 17 18 19 20
893
FTUS46 KEKA 250538
TAFCEC
TAF
KCEC 250538Z 2506/2606 24004KT P6SM VCSH SCT020 OVC040
      TEMPO 2506/2510 BKN025
     FM251600 16008KT 6SM -RA SCT020 BKN035
     FM251900 17010KT 4SM -RA BR BKN020=

USA.gov is the U.S. government's official web portal to all federal, state and local government web resources and services.